sensor_id;sensor_type;location;lat;lon;timestamp;pressure;altitude;pressure_sealevel;temperature;humidity
59194;BME280;44967;48.598;15.650;2023-11-22T00:00:44;98224.47;;;6.70;85.88
59194;BME280;44967;48.598;15.650;2023-11-22T00:03:10;98226.16;;;6.74;86.59
59194;BME280;44967;48.598;15.650;2023-11-22T00:05:35;98224.59;;;6.63;85.42
59194;BME280;44967;48.598;15.650;2023-11-22T00:08:01;98221.91;;;6.65;86.19
59194;BME280;44967;48.598;15.650;2023-11-22T00:10:27;98221.22;;;6.55;86.18
59194;BME280;44967;48.598;15.650;2023-11-22T00:12:53;98216.81;;;6.56;85.75
59194;BME280;44967;48.598;15.650;2023-11-22T00:15:19;98223.75;;;6.60;85.49
59194;BME280;44967;48.598;15.650;2023-11-22T00:17:45;98224.91;;;6.42;85.72
59194;BME280;44967;48.598;15.650;2023-11-22T00:20:11;98219.84;;;6.32;85.70
59194;BME280;44967;48.598;15.650;2023-11-22T00:22:37;98228.75;;;6.20;85.45
59194;BME280;44967;48.598;15.650;2023-11-22T00:25:03;98226.22;;;6.12;85.22
59194;BME280;44967;48.598;15.650;2023-11-22T00:27:30;98237.34;;;6.28;85.31
59194;BME280;44967;48.598;15.650;2023-11-22T00:29:59;98248.88;;;6.20;85.76
59194;BME280;44967;48.598;15.650;2023-11-22T00:32:25;98246.31;;;6.15;85.49
59194;BME280;44967;48.598;15.650;2023-11-22T00:34:54;98256.75;;;6.18;84.54
59194;BME280;44967;48.598;15.650;2023-11-22T00:37:19;98259.53;;;6.06;82.65
59194;BME280;44967;48.598;15.650;2023-11-22T00:39:45;98253.47;;;6.02;82.87
59194;BME280;44967;48.598;15.650;2023-11-22T00:42:11;98270.91;;;6.08;81.74
59194;BME280;44967;48.598;15.650;2023-11-22T00:44:37;98268.53;;;5.88;81.55
59194;BME280;44967;48.598;15.650;2023-11-22T00:47:03;98279.00;;;5.85;80.81
59194;BME280;44967;48.598;15.650;2023-11-22T00:49:29;98276.47;;;5.78;80.60
59194;BME280;44967;48.598;15.650;2023-11-22T00:51:54;98278.16;;;5.82;81.21
59194;BME280;44967;48.598;15.650;2023-11-22T00:54:20;98280.72;;;5.89;81.24
59194;BME280;44967;48.598;15.650;2023-11-22T00:56:46;98272.78;;;5.95;81.73
59194;BME280;44967;48.598;15.650;2023-11-22T00:59:12;98292.09;;;5.90;81.73
59194;BME280;44967;48.598;15.650;2023-11-22T01:01:40;98285.09;;;5.86;81.35
59194;BME280;44967;48.598;15.650;2023-11-22T01:04:07;98289.56;;;5.78;81.61
59194;BME280;44967;48.598;15.650;2023-11-22T01:06:33;98294.81;;;5.78;80.91
59194;BME280;44967;48.598;15.650;2023-11-22T01:08:59;98287.00;;;5.73;80.75
59194;BME280;44967;48.598;15.650;2023-11-22T01:11:25;98288.81;;;5.68;81.56
59194;BME280;44967;48.598;15.650;2023-11-22T01:13:51;98284.47;;;5.67;80.65
59194;BME280;44967;48.598;15.650;2023-11-22T01:16:17;98286.28;;;5.60;80.15
59194;BME280;44967;48.598;15.650;2023-11-22T01:18:43;98291.59;;;5.54;80.64
59194;BME280;44967;48.598;15.650;2023-11-22T01:21:11;98291.53;;;5.59;80.05
59194;BME280;44967;48.598;15.650;2023-11-22T01:23:37;98292.47;;;5.53;79.93
59194;BME280;44967;48.598;15.650;2023-11-22T01:26:03;98304.66;;;5.59;80.07
59194;BME280;44967;48.598;15.650;2023-11-22T01:28:29;98302.09;;;5.53;80.66
59194;BME280;44967;48.598;15.650;2023-11-22T01:31:00;98300.44;;;5.44;79.95
59194;BME280;44967;48.598;15.650;2023-11-22T01:33:27;98310.09;;;5.39;79.63
59194;BME280;44967;48.598;15.650;2023-11-22T01:35:53;98317.06;;;5.40;80.32
59194;BME280;44967;48.598;15.650;2023-11-22T01:38:19;98313.69;;;5.29;79.50
59194;BME280;44967;48.598;15.650;2023-11-22T01:40:46;98315.44;;;5.27;79.64
59194;BME280;44967;48.598;15.650;2023-11-22T01:43:17;98322.34;;;5.34;80.26
59194;BME280;44967;48.598;15.650;2023-11-22T01:45:44;98322.47;;;5.22;78.60
59194;BME280;44967;48.598;15.650;2023-11-22T01:48:11;98330.44;;;5.13;79.46
59194;BME280;44967;48.598;15.650;2023-11-22T01:50:38;98329.59;;;5.08;79.55
59194;BME280;44967;48.598;15.650;2023-11-22T01:53:07;98346.25;;;5.01;79.66
59194;BME280;44967;48.598;15.650;2023-11-22T01:55:35;98336.69;;;4.92;79.97
59194;BME280;44967;48.598;15.650;2023-11-22T01:58:01;98347.97;;;4.99;79.27
59194;BME280;44967;48.598;15.650;2023-11-22T02:00:34;98354.16;;;4.92;80.14
59194;BME280;44967;48.598;15.650;2023-11-22T02:03:01;98348.81;;;5.04;79.56
59194;BME280;44967;48.598;15.650;2023-11-22T02:05:28;98350.47;;;5.14;79.40
59194;BME280;44967;48.598;15.650;2023-11-22T02:07:54;98360.09;;;5.10;79.66
59194;BME280;44967;48.598;15.650;2023-11-22T02:10:20;98353.16;;;5.08;80.03
59194;BME280;44967;48.598;15.650;2023-11-22T02:12:46;98368.00;;;5.07;79.34
59194;BME280;44967;48.598;15.650;2023-11-22T02:15:12;98364.53;;;5.05;80.21
59194;BME280;44967;48.598;15.650;2023-11-22T02:17:38;98361.00;;;5.08;79.87
59194;BME280;44967;48.598;15.650;2023-11-22T02:20:05;98364.53;;;5.04;80.50
59194;BME280;44967;48.598;15.650;2023-11-22T02:22:42;98366.25;;;5.08;80.03
59194;BME280;44967;48.598;15.650;2023-11-22T02:25:08;98366.25;;;5.06;80.95
59194;BME280;44967;48.598;15.650;2023-11-22T02:27:35;98375.84;;;5.06;80.82
59194;BME280;44967;48.598;15.650;2023-11-22T02:30:03;98368.88;;;5.09;80.60
59194;BME280;44967;48.598;15.650;2023-11-22T02:32:31;98375.84;;;5.07;81.95
59194;BME280;44967;48.598;15.650;2023-11-22T02:34:59;98378.47;;;5.06;80.85
59194;BME280;44967;48.598;15.650;2023-11-22T02:37:25;98370.69;;;5.01;81.78
59194;BME280;44967;48.598;15.650;2023-11-22T02:40:21;98381.97;;;5.06;81.97
59194;BME280;44967;48.598;15.650;2023-11-22T02:42:52;98381.06;;;5.10;81.09
59194;BME280;44967;48.598;15.650;2023-11-22T02:45:21;98380.22;;;5.07;80.49
59194;BME280;44967;48.598;15.650;2023-11-22T02:47:49;98392.47;;;5.05;80.70
59194;BME280;44967;48.598;15.650;2023-11-22T02:50:16;98390.63;;;5.14;80.58
59194;BME280;44967;48.598;15.650;2023-11-22T02:52:42;98390.81;;;4.92;80.28
59194;BME280;44967;48.598;15.650;2023-11-22T02:55:09;98389.88;;;4.99;80.79
59194;BME280;44967;48.598;15.650;2023-11-22T02:57:35;98383.72;;;5.06;80.06
59194;BME280;44967;48.598;15.650;2023-11-22T03:00:03;98385.56;;;4.92;80.43
59194;BME280;44967;48.598;15.650;2023-11-22T03:02:30;98392.47;;;5.02;80.72
59194;BME280;44967;48.598;15.650;2023-11-22T03:04:57;98390.84;;;4.89;80.02
59194;BME280;44967;48.598;15.650;2023-11-22T03:07:26;98401.34;;;4.86;79.53
59194;BME280;44967;48.598;15.650;2023-11-22T03:09:52;98410.13;;;4.72;79.81
59194;BME280;44967;48.598;15.650;2023-11-22T03:12:18;98410.13;;;4.66;79.93
59194;BME280;44967;48.598;15.650;2023-11-22T03:14:46;98410.13;;;4.71;81.50
59194;BME280;44967;48.598;15.650;2023-11-22T03:17:14;98417.94;;;4.80;80.33
59194;BME280;44967;48.598;15.650;2023-11-22T03:19:40;98420.59;;;4.72;80.84
59194;BME280;44967;48.598;15.650;2023-11-22T03:22:06;98431.00;;;4.79;80.53
59194;BME280;44967;48.598;15.650;2023-11-22T03:24:32;98440.69;;;4.64;80.71
59194;BME280;44967;48.598;15.650;2023-11-22T03:27:02;98441.53;;;4.72;80.97
59194;BME280;44967;48.598;15.650;2023-11-22T03:29:29;98446.72;;;4.79;79.81
59194;BME280;44967;48.598;15.650;2023-11-22T03:31:55;98460.75;;;4.67;80.56
59194;BME280;44967;48.598;15.650;2023-11-22T03:34:21;98459.09;;;4.49;81.05
59194;BME280;44967;48.598;15.650;2023-11-22T03:36:47;98472.13;;;4.58;81.21
59194;BME280;44967;48.598;15.650;2023-11-22T03:39:15;98473.88;;;4.56;80.99
59194;BME280;44967;48.598;15.650;2023-11-22T03:41:42;98483.44;;;4.59;81.24
59194;BME280;44967;48.598;15.650;2023-11-22T03:44:07;98476.53;;;4.44;80.97
59194;BME280;44967;48.598;15.650;2023-11-22T03:46:39;98473.91;;;4.52;80.49
59194;BME280;44967;48.598;15.650;2023-11-22T03:49:06;98480.03;;;4.49;80.46
59194;BME280;44967;48.598;15.650;2023-11-22T03:51:36;98483.53;;;4.42;81.07
59194;BME280;44967;48.598;15.650;2023-11-22T03:54:02;98480.03;;;4.49;80.35
59194;BME280;44967;48.598;15.650;2023-11-22T03:56:28;98488.75;;;4.48;80.22
59194;BME280;44967;48.598;15.650;2023-11-22T03:58:55;98497.47;;;4.44;79.98
59194;BME280;44967;48.598;15.650;2023-11-22T04:01:22;98500.94;;;4.43;80.71
59194;BME280;44967;48.598;15.650;2023-11-22T04:03:48;98500.16;;;4.31;78.73
59194;BME280;44967;48.598;15.650;2023-11-22T04:06:16;98506.22;;;4.37;79.66
59194;BME280;44967;48.598;15.650;2023-11-22T04:08:43;98503.63;;;4.26;79.39
59194;BME280;44967;48.598;15.650;2023-11-22T04:11:09;98502.69;;;4.44;79.13
59194;BME280;44967;48.598;15.650;2023-11-22T04:13:36;98506.16;;;4.51;78.34
59194;BME280;44967;48.598;15.650;2023-11-22T04:16:02;98501.84;;;4.36;77.03
59194;BME280;44967;48.598;15.650;2023-11-22T04:18:28;98507.94;;;4.41;77.62
59194;BME280;44967;48.598;15.650;2023-11-22T04:20:54;98504.44;;;4.44;77.30
59194;BME280;44967;48.598;15.650;2023-11-22T04:23:20;98508.81;;;4.43;78.25
59194;BME280;44967;48.598;15.650;2023-11-22T04:25:47;98513.16;;;4.47;77.52
59194;BME280;44967;48.598;15.650;2023-11-22T04:28:15;98525.34;;;4.51;76.98
59194;BME280;44967;48.598;15.650;2023-11-22T04:30:41;98524.50;;;4.43;75.44
59194;BME280;44967;48.598;15.650;2023-11-22T04:33:07;98536.75;;;4.23;76.42
59194;BME280;44967;48.598;15.650;2023-11-22T04:35:33;98542.00;;;4.20;77.17
59194;BME280;44967;48.598;15.650;2023-11-22T04:38:02;98552.47;;;4.26;78.09
59194;BME280;44967;48.598;15.650;2023-11-22T04:40:29;98552.44;;;4.20;76.73
59194;BME280;44967;48.598;15.650;2023-11-22T04:42:56;98548.94;;;4.27;76.72
59194;BME280;44967;48.598;15.650;2023-11-22T04:45:21;98551.56;;;4.24;75.98
59194;BME280;44967;48.598;15.650;2023-11-22T04:47:47;98555.06;;;4.21;76.69
59194;BME280;44967;48.598;15.650;2023-11-22T04:50:13;98551.59;;;4.16;77.17
59194;BME280;44967;48.598;15.650;2023-11-22T04:52:39;98563.78;;;4.04;76.34
59194;BME280;44967;48.598;15.650;2023-11-22T04:55:05;98560.31;;;4.21;76.06
59194;BME280;44967;48.598;15.650;2023-11-22T04:57:31;98562.91;;;4.12;75.80
59194;BME280;44967;48.598;15.650;2023-11-22T04:59:57;98564.69;;;4.10;76.79
59194;BME280;44967;48.598;15.650;2023-11-22T05:02:23;98558.59;;;4.07;76.67
59194;BME280;44967;48.598;15.650;2023-11-22T05:04:49;98571.66;;;3.93;75.65
59194;BME280;44967;48.598;15.650;2023-11-22T05:07:15;98573.38;;;4.00;76.01
59194;BME280;44967;48.598;15.650;2023-11-22T05:09:41;98577.75;;;4.03;76.10
59194;BME280;44967;48.598;15.650;2023-11-22T05:12:09;98589.94;;;4.01;76.97
59194;BME280;44967;48.598;15.650;2023-11-22T05:14:40;98598.66;;;4.18;76.63
59194;BME280;44967;48.598;15.650;2023-11-22T05:17:09;98599.53;;;4.12;76.62
59194;BME280;44967;48.598;15.650;2023-11-22T05:19:34;98600.41;;;4.10;75.74
59194;BME280;44967;48.598;15.650;2023-11-22T05:22:00;98601.28;;;4.12;76.05
59194;BME280;44967;48.598;15.650;2023-11-22T05:24:26;98608.25;;;3.95;75.29
59194;BME280;44967;48.598;15.650;2023-11-22T05:26:52;98609.13;;;4.06;75.40
59194;BME280;44967;48.598;15.650;2023-11-22T05:29:17;98617.81;;;3.96;74.87
59194;BME280;44967;48.598;15.650;2023-11-22T05:31:44;98619.56;;;3.94;75.48
59194;BME280;44967;48.598;15.650;2023-11-22T05:34:10;98616.09;;;4.02;74.45
59194;BME280;44967;48.598;15.650;2023-11-22T05:36:35;98619.56;;;3.94;75.21
59194;BME280;44967;48.598;15.650;2023-11-22T05:39:01;98616.09;;;4.01;75.75
59194;BME280;44967;48.598;15.650;2023-11-22T05:41:29;98616.97;;;4.06;75.22
59194;BME280;44967;48.598;15.650;2023-11-22T05:43:55;98626.53;;;4.01;74.56
59194;BME280;44967;48.598;15.650;2023-11-22T05:46:22;98626.53;;;3.92;75.48
59194;BME280;44967;48.598;15.650;2023-11-22T05:48:53;98629.13;;;3.73;76.60
59194;BME280;44967;48.598;15.650;2023-11-22T05:51:20;98630.84;;;3.58;77.12
59194;BME280;44967;48.598;15.650;2023-11-22T05:53:46;98644.81;;;3.75;77.13
59194;BME280;44967;48.598;15.650;2023-11-22T05:56:12;98646.53;;;3.76;77.25
59194;BME280;44967;48.598;15.650;2023-11-22T05:58:39;98659.63;;;3.85;76.85
59194;BME280;44967;48.598;15.650;2023-11-22T06:01:05;98657.81;;;3.57;77.28
59194;BME280;44967;48.598;15.650;2023-11-22T06:03:32;98667.41;;;3.64;77.70
59194;BME280;44967;48.598;15.650;2023-11-22T06:05:58;98664.84;;;3.70;77.42
59194;BME280;44967;48.598;15.650;2023-11-22T06:08:24;98670.03;;;3.68;76.77
59194;BME280;44967;48.598;15.650;2023-11-22T06:10:50;98672.63;;;3.53;77.30
59194;BME280;44967;48.598;15.650;2023-11-22T06:13:17;98673.47;;;3.48;76.48
59194;BME280;44967;48.598;15.650;2023-11-22T06:15:43;98678.69;;;3.46;76.55
59194;BME280;44967;48.598;15.650;2023-11-22T06:18:09;98682.22;;;3.51;76.85
59194;BME280;44967;48.598;15.650;2023-11-22T06:20:34;98669.16;;;3.57;76.39
59194;BME280;44967;48.598;15.650;2023-11-22T06:23:00;98673.53;;;3.58;75.61
59194;BME280;44967;48.598;15.650;2023-11-22T06:25:26;98676.09;;;3.52;75.46
59194;BME280;44967;48.598;15.650;2023-11-22T06:27:52;98693.44;;;3.27;75.74
59194;BME280;44967;48.598;15.650;2023-11-22T06:30:18;98708.19;;;3.24;76.43
59194;BME280;44967;48.598;15.650;2023-11-22T06:32:45;98708.22;;;3.33;76.42
59194;BME280;44967;48.598;15.650;2023-11-22T06:35:11;98710.84;;;3.27;76.58
59194;BME280;44967;48.598;15.650;2023-11-22T06:37:41;98710.78;;;3.19;77.53
59194;BME280;44967;48.598;15.650;2023-11-22T06:40:07;98720.38;;;3.25;76.95
59194;BME280;44967;48.598;15.650;2023-11-22T06:42:38;98728.28;;;3.39;77.64
59194;BME280;44967;48.598;15.650;2023-11-22T06:45:05;98741.38;;;3.43;76.52
59194;BME280;44967;48.598;15.650;2023-11-22T06:47:39;98739.66;;;3.48;76.70
59194;BME280;44967;48.598;15.650;2023-11-22T06:50:05;98739.59;;;3.35;77.23
59194;BME280;44967;48.598;15.650;2023-11-22T06:52:41;98738.75;;;3.36;77.17
59194;BME280;44967;48.598;15.650;2023-11-22T06:55:08;98732.69;;;3.52;77.40
59194;BME280;44967;48.598;15.650;2023-11-22T06:57:36;98737.94;;;3.56;77.76
59194;BME280;44967;48.598;15.650;2023-11-22T07:00:03;98750.16;;;3.60;78.67
59194;BME280;44967;48.598;15.650;2023-11-22T07:02:33;98748.34;;;3.43;79.22
59194;BME280;44967;48.598;15.650;2023-11-22T07:05:01;98765.69;;;3.30;80.15
59194;BME280;44967;48.598;15.650;2023-11-22T07:07:28;98770.88;;;3.22;82.34
59194;BME280;44967;48.598;15.650;2023-11-22T07:09:55;98775.28;;;3.31;82.45
59194;BME280;44967;48.598;15.650;2023-11-22T07:12:24;98788.34;;;3.37;82.72
59194;BME280;44967;48.598;15.650;2023-11-22T07:14:50;98796.25;;;3.49;82.31
59194;BME280;44967;48.598;15.650;2023-11-22T07:17:16;98794.53;;;3.51;83.42
59194;BME280;44967;48.598;15.650;2023-11-22T07:19:47;98804.94;;;3.45;83.93
59194;BME280;44967;48.598;15.650;2023-11-22T07:22:14;98805.84;;;3.47;85.08
59194;BME280;44967;48.598;15.650;2023-11-22T07:24:48;98809.34;;;3.52;85.04
59194;BME280;44967;48.598;15.650;2023-11-22T07:27:17;98820.66;;;3.51;85.48
59194;BME280;44967;48.598;15.650;2023-11-22T07:29:44;98825.72;;;3.27;84.72
59194;BME280;44967;48.598;15.650;2023-11-22T07:32:13;98833.63;;;3.35;85.97
59194;BME280;44967;48.598;15.650;2023-11-22T07:34:40;98844.03;;;3.33;85.05
59194;BME280;44967;48.598;15.650;2023-11-22T07:37:07;98846.53;;;3.16;85.43
59194;BME280;44967;48.598;15.650;2023-11-22T07:39:36;98843.75;;;2.95;86.46
59194;BME280;44967;48.598;15.650;2023-11-22T07:42:04;98843.72;;;2.91;87.37
59194;BME280;44967;48.598;15.650;2023-11-22T07:44:34;98843.72;;;2.91;87.02
59194;BME280;44967;48.598;15.650;2023-11-22T07:47:04;98841.22;;;3.04;88.18
59194;BME280;44967;48.598;15.650;2023-11-22T07:49:34;98831.72;;;3.11;87.50
59194;BME280;44967;48.598;15.650;2023-11-22T07:52:04;98833.50;;;3.18;86.87
59194;BME280;44967;48.598;15.650;2023-11-22T07:54:31;98832.75;;;3.37;87.89
59194;BME280;44967;48.598;15.650;2023-11-22T07:56:57;98848.53;;;3.52;87.67
59194;BME280;44967;48.598;15.650;2023-11-22T07:59:23;98851.94;;;3.42;86.78
59194;BME280;44967;48.598;15.650;2023-11-22T08:01:49;98866.72;;;3.40;87.57
59194;BME280;44967;48.598;15.650;2023-11-22T08:04:15;98875.31;;;3.24;87.00
59194;BME280;44967;48.598;15.650;2023-11-22T08:06:42;98870.09;;;3.24;87.32
59194;BME280;44967;48.598;15.650;2023-11-22T08:09:08;98881.53;;;3.41;87.50
59194;BME280;44967;48.598;15.650;2023-11-22T08:11:35;98884.16;;;3.44;87.14
59194;BME280;44967;48.598;15.650;2023-11-22T08:14:02;98881.63;;;3.50;86.76
59194;BME280;44967;48.598;15.650;2023-11-22T08:16:28;98877.25;;;3.52;87.31
59194;BME280;44967;48.598;15.650;2023-11-22T08:18:54;98889.44;;;3.47;86.86
59194;BME280;44967;48.598;15.650;2023-11-22T08:21:20;98886.78;;;3.44;87.21
59194;BME280;44967;48.598;15.650;2023-11-22T08:23:46;98891.16;;;3.48;87.63
59194;BME280;44967;48.598;15.650;2023-11-22T08:26:16;98885.94;;;3.45;88.19
59194;BME280;44967;48.598;15.650;2023-11-22T08:28:41;98893.00;;;3.61;87.99
59194;BME280;44967;48.598;15.650;2023-11-22T08:31:07;98892.00;;;3.44;88.04
59194;BME280;44967;48.598;15.650;2023-11-22T08:33:36;98896.34;;;3.42;86.51
59194;BME280;44967;48.598;15.650;2023-11-22T08:36:07;98900.72;;;3.48;87.84
59194;BME280;44967;48.598;15.650;2023-11-22T08:38:37;98886.88;;;3.55;87.68
59194;BME280;44967;48.598;15.650;2023-11-22T08:41:09;98892.97;;;3.54;87.63
59194;BME280;44967;48.598;15.650;2023-11-22T08:43:39;98895.66;;;3.63;87.78
59194;BME280;44967;48.598;15.650;2023-11-22T08:46:05;98909.63;;;3.71;87.76
59194;BME280;44967;48.598;15.650;2023-11-22T08:48:33;98908.75;;;3.70;87.90
59194;BME280;44967;48.598;15.650;2023-11-22T08:51:00;98921.00;;;3.77;88.04
59194;BME280;44967;48.598;15.650;2023-11-22T08:53:26;98917.59;;;3.91;87.22
59194;BME280;44967;48.598;15.650;2023-11-22T08:55:52;98922.63;;;3.62;87.03
59194;BME280;44967;48.598;15.650;2023-11-22T08:58:20;98917.53;;;3.82;86.49
59194;BME280;44967;48.598;15.650;2023-11-22T09:00:46;98932.22;;;3.63;86.60
59194;BME280;44967;48.598;15.650;2023-11-22T09:03:12;98934.09;;;3.85;86.56
59194;BME280;44967;48.598;15.650;2023-11-22T09:05:42;98933.91;;;3.55;86.49
59194;BME280;44967;48.598;15.650;2023-11-22T09:08:08;98934.72;;;3.46;87.06
59194;BME280;44967;48.598;15.650;2023-11-22T09:10:43;98927.84;;;3.60;87.43
59194;BME280;44967;48.598;15.650;2023-11-22T09:13:10;98936.34;;;3.33;86.92
59194;BME280;44967;48.598;15.650;2023-11-22T09:15:37;98941.72;;;3.53;87.71
59194;BME280;44967;48.598;15.650;2023-11-22T09:18:05;98954.91;;;3.68;87.82
59194;BME280;44967;48.598;15.650;2023-11-22T09:20:32;98962.75;;;3.68;87.63
59194;BME280;44967;48.598;15.650;2023-11-22T09:22:57;98966.22;;;3.69;86.49
59194;BME280;44967;48.598;15.650;2023-11-22T09:25:25;98974.06;;;3.69;86.14
59194;BME280;44967;48.598;15.650;2023-11-22T09:27:52;98979.19;;;3.54;85.92
59194;BME280;44967;48.598;15.650;2023-11-22T09:30:23;98988.84;;;3.65;85.83
59194;BME280;44967;48.598;15.650;2023-11-22T09:33:07;98987.16;;;3.70;84.60
59194;BME280;44967;48.598;15.650;2023-11-22T09:35:35;98982.78;;;3.66;84.87
59194;BME280;44967;48.598;15.650;2023-11-22T09:38:06;98980.97;;;3.58;84.88
59194;BME280;44967;48.598;15.650;2023-11-22T09:40:35;98981.03;;;3.68;84.20
59194;BME280;44967;48.598;15.650;2023-11-22T09:43:02;98974.19;;;3.86;84.86
59194;BME280;44967;48.598;15.650;2023-11-22T09:45:29;98983.91;;;4.02;85.39
59194;BME280;44967;48.598;15.650;2023-11-22T09:47:56;98984.81;;;4.08;82.75
59194;BME280;44967;48.598;15.650;2023-11-22T09:50:28;98987.34;;;3.99;84.24
59194;BME280;44967;48.598;15.650;2023-11-22T09:52:59;98983.94;;;4.06;83.37
59194;BME280;44967;48.598;15.650;2023-11-22T09:55:28;98979.50;;;3.95;82.73
59194;BME280;44967;48.598;15.650;2023-11-22T09:57:55;98983.97;;;4.14;82.92
59194;BME280;44967;48.598;15.650;2023-11-22T10:00:25;98974.41;;;4.17;82.96
59194;BME280;44967;48.598;15.650;2023-11-22T10:02:53;98970.16;;;4.41;81.78
59194;BME280;44967;48.598;15.650;2023-11-22T10:05:20;98959.66;;;4.36;80.28
59194;BME280;44967;48.598;15.650;2023-11-22T10:07:46;98956.22;;;4.42;81.24
59194;BME280;44967;48.598;15.650;2023-11-22T10:10:14;98945.84;;;4.64;81.12
59194;BME280;44967;48.598;15.650;2023-11-22T10:12:42;98942.38;;;4.71;81.50
59194;BME280;44967;48.598;15.650;2023-11-22T10:15:16;98952.00;;;4.86;80.96
59194;BME280;44967;48.598;15.650;2023-11-22T10:17:47;98966.91;;;5.05;77.72
59194;BME280;44967;48.598;15.650;2023-11-22T10:20:13;98960.78;;;5.08;76.49
59194;BME280;44967;48.598;15.650;2023-11-22T10:22:45;98959.88;;;4.89;76.47
59194;BME280;44967;48.598;15.650;2023-11-22T10:25:14;98955.44;;;4.65;75.34
59194;BME280;44967;48.598;15.650;2023-11-22T10:27:47;98959.00;;;4.81;79.22
59194;BME280;44967;48.598;15.650;2023-11-22T10:30:13;98962.41;;;4.68;77.08
59194;BME280;44967;48.598;15.650;2023-11-22T10:32:42;98974.69;;;4.83;76.12
59194;BME280;44967;48.598;15.650;2023-11-22T10:35:08;98970.31;;;4.79;76.15
59194;BME280;44967;48.598;15.650;2023-11-22T10:37:35;98981.59;;;4.58;74.09
59194;BME280;44967;48.598;15.650;2023-11-22T10:40:01;98980.72;;;4.60;74.96
59194;BME280;44967;48.598;15.650;2023-11-22T10:42:29;98977.25;;;4.64;74.80
59194;BME280;44967;48.598;15.650;2023-11-22T10:44:56;98984.19;;;4.62;73.71
59194;BME280;44967;48.598;15.650;2023-11-22T10:47:28;98992.97;;;4.69;73.26
59194;BME280;44967;48.598;15.650;2023-11-22T10:49:55;99001.69;;;4.65;72.95
59194;BME280;44967;48.598;15.650;2023-11-22T10:52:25;98999.78;;;4.35;72.62
59194;BME280;44967;48.598;15.650;2023-11-22T10:54:59;99006.75;;;4.36;72.39
59194;BME280;44967;48.598;15.650;2023-11-22T10:57:31;99003.34;;;4.48;74.33
59194;BME280;44967;48.598;15.650;2023-11-22T11:00:01;99011.22;;;4.55;74.41
59194;BME280;44967;48.598;15.650;2023-11-22T11:02:35;99013.63;;;4.14;73.17
59194;BME280;44967;48.598;15.650;2023-11-22T11:05:14;99022.34;;;4.19;73.16
59194;BME280;44967;48.598;15.650;2023-11-22T11:07:54;99029.41;;;4.31;74.32
59194;BME280;44967;48.598;15.650;2023-11-22T11:10:23;99027.66;;;4.35;74.54
59194;BME280;44967;48.598;15.650;2023-11-22T11:12:49;99029.44;;;4.39;73.92
59194;BME280;44967;48.598;15.650;2023-11-22T11:15:15;99028.47;;;4.21;72.77
59194;BME280;44967;48.598;15.650;2023-11-22T11:17:43;99026.81;;;4.34;73.52
59194;BME280;44967;48.598;15.650;2023-11-22T11:20:16;99035.56;;;4.41;71.97
59194;BME280;44967;48.598;15.650;2023-11-22T11:22:43;99038.91;;;4.17;71.38
59194;BME280;44967;48.598;15.650;2023-11-22T11:25:16;99042.53;;;4.37;71.69
59194;BME280;44967;48.598;15.650;2023-11-22T11:27:51;99037.19;;;4.23;71.72
59194;BME280;44967;48.598;15.650;2023-11-22T11:33:17;99044.97;;;4.10;71.73
59194;BME280;44967;48.598;15.650;2023-11-22T11:35:46;99046.75;;;4.14;71.79
59194;BME280;44967;48.598;15.650;2023-11-22T11:38:14;99051.06;;;4.12;70.98
59194;BME280;44967;48.598;15.650;2023-11-22T11:40:41;99050.13;;;4.04;72.21
59194;BME280;44967;48.598;15.650;2023-11-22T11:43:07;99042.38;;;4.16;72.07
59194;BME280;44967;48.598;15.650;2023-11-22T11:45:40;99043.31;;;4.27;72.42
59194;BME280;44967;48.598;15.650;2023-11-22T11:48:15;99045.00;;;4.16;72.39
59194;BME280;44967;48.598;15.650;2023-11-22T11:50:42;99051.16;;;4.27;72.50
59194;BME280;44967;48.598;15.650;2023-11-22T11:53:09;99054.53;;;4.06;71.98
59194;BME280;44967;48.598;15.650;2023-11-22T11:55:38;99064.22;;;4.21;71.40
59194;BME280;44967;48.598;15.650;2023-11-22T11:58:05;99063.31;;;4.14;71.84
59194;BME280;44967;48.598;15.650;2023-11-22T12:00:33;99080.81;;;4.24;70.83
59194;BME280;44967;48.598;15.650;2023-11-22T12:02:58;99085.19;;;4.27;71.47
59194;BME280;44967;48.598;15.650;2023-11-22T12:05:24;99081.69;;;4.25;71.19
59194;BME280;44967;48.598;15.650;2023-11-22T12:07:50;99089.53;;;4.22;70.52
59194;BME280;44967;48.598;15.650;2023-11-22T12:10:16;99092.69;;;3.83;70.82
59194;BME280;44967;48.598;15.650;2023-11-22T12:12:43;99098.94;;;4.02;71.47
59194;BME280;44967;48.598;15.650;2023-11-22T12:15:11;99095.31;;;3.88;71.15
59194;BME280;44967;48.598;15.650;2023-11-22T12:17:37;99098.91;;;3.97;71.60
59194;BME280;44967;48.598;15.650;2023-11-22T12:20:14;99091.97;;;4.04;70.94
59194;BME280;44967;48.598;15.650;2023-11-22T12:22:41;99089.41;;;4.07;71.60
59194;BME280;44967;48.598;15.650;2023-11-22T12:25:07;99093.84;;;4.20;72.73
59194;BME280;44967;48.598;15.650;2023-11-22T12:27:33;99090.25;;;4.03;71.50
59194;BME280;44967;48.598;15.650;2023-11-22T12:29:59;99083.41;;;4.21;71.23
59194;BME280;44967;48.598;15.650;2023-11-22T12:32:25;99085.06;;;4.09;70.92
59194;BME280;44967;48.598;15.650;2023-11-22T12:34:51;99087.59;;;3.98;70.19
59194;BME280;44967;48.598;15.650;2023-11-22T12:37:21;99096.88;;;3.67;69.79
59194;BME280;44967;48.598;15.650;2023-11-22T12:39:47;99090.16;;;3.94;71.39
59194;BME280;44967;48.598;15.650;2023-11-22T12:42:19;99090.19;;;3.97;70.76
59194;BME280;44967;48.598;15.650;2023-11-22T12:44:52;99096.38;;;4.11;72.04
59194;BME280;44967;48.598;15.650;2023-11-22T12:47:34;99102.56;;;4.19;71.52
59194;BME280;44967;48.598;15.650;2023-11-22T12:50:03;99088.63;;;4.20;71.03
59194;BME280;44967;48.598;15.650;2023-11-22T12:52:30;99089.47;;;4.19;71.70
59194;BME280;44967;48.598;15.650;2023-11-22T12:54:58;99085.03;;;4.03;71.12
59194;BME280;44967;48.598;15.650;2023-11-22T12:57:24;99079.78;;;4.04;71.43
59194;BME280;44967;48.598;15.650;2023-11-22T12:59:51;99079.81;;;4.09;71.36
59194;BME280;44967;48.598;15.650;2023-11-22T13:02:17;99071.09;;;4.07;70.42
59194;BME280;44967;48.598;15.650;2023-11-22T13:04:43;99064.06;;;3.98;70.47